createdAt,value
2019-04-18T00:00:48.762Z,99.90
2019-04-18T00:03:24.461Z,99.90
2019-04-18T00:05:58.032Z,99.90
2019-04-18T00:08:29.010Z,99.90
2019-04-18T00:10:59.927Z,99.90
2019-04-18T00:13:30.944Z,99.90
2019-04-18T00:16:01.908Z,99.90
2019-04-18T00:18:35.645Z,99.90
2019-04-18T00:21:05.946Z,99.90
2019-04-18T00:23:36.965Z,99.90
2019-04-18T00:26:11.680Z,99.90
2019-04-18T00:28:40.549Z,99.90
2019-04-18T00:31:11.479Z,99.90
2019-04-18T00:33:42.442Z,99.90
2019-04-18T00:36:15.205Z,99.90
2019-04-18T00:38:46.112Z,99.90
2019-04-18T00:41:17.053Z,99.90
2019-04-18T00:43:48.018Z,99.90
2019-04-18T00:46:18.942Z,99.90
2019-04-18T00:48:49.910Z,99.90
2019-04-18T00:51:20.846Z,99.90
2019-04-18T00:53:54.204Z,99.90
2019-04-18T00:56:25.445Z,99.90
2019-04-18T00:58:56.404Z,99.90
2019-04-18T01:01:27.348Z,99.90
2019-04-18T01:03:59.737Z,99.90
2019-04-18T01:06:31.103Z,99.90
2019-04-18T01:09:11.585Z,99.90
2019-04-18T01:11:44.445Z,99.90
2019-04-18T01:14:17.074Z,99.90
2019-04-18T01:16:48.143Z,99.90
2019-04-18T01:19:19.800Z,99.90
2019-04-18T01:21:51.548Z,99.90
2019-04-18T01:24:27.819Z,99.90
2019-04-18T01:26:55.133Z,99.90
2019-04-18T01:29:26.071Z,99.90
2019-04-18T01:31:57.035Z,99.90
2019-04-18T01:34:40.942Z,99.90
2019-04-18T01:37:02.926Z,99.90
2019-04-18T01:39:33.269Z,99.90
2019-04-18T01:42:13.424Z,99.90
2019-04-18T01:44:57.712Z,99.90
2019-04-18T01:47:28.987Z,99.90
2019-04-18T01:50:00.409Z,99.90
2019-04-18T01:52:31.551Z,99.90
2019-04-18T01:55:02.492Z,99.90
2019-04-18T01:57:33.457Z,99.90
2019-04-18T02:00:14.806Z,99.90
2019-04-18T02:02:42.619Z,99.90
2019-04-18T02:05:13.847Z,99.90
2019-04-18T02:07:46.391Z,99.90
2019-04-18T02:10:18.528Z,99.90
2019-04-18T02:12:49.597Z,99.90
2019-04-18T02:15:20.513Z,99.90
2019-04-18T02:17:52.084Z,99.90
2019-04-18T02:20:35.844Z,99.90
2019-04-18T02:23:08.008Z,99.90
2019-04-18T02:25:42.453Z,99.90
2019-04-18T02:28:12.000Z,99.90
2019-04-18T02:30:43.860Z,99.90
2019-04-18T02:33:14.894Z,99.90
2019-04-18T02:35:45.828Z,99.90
2019-04-18T02:38:19.981Z,99.90
2019-04-18T02:40:49.460Z,99.90
2019-04-18T02:43:22.150Z,99.90
2019-04-18T02:45:53.090Z,99.90
2019-04-18T02:48:25.559Z,99.90
2019-04-18T02:50:56.713Z,99.90
2019-04-18T02:53:31.606Z,99.90
2019-04-18T02:56:03.503Z,99.90
2019-04-18T02:58:43.306Z,99.90
2019-04-18T03:01:15.813Z,99.90
2019-04-18T03:03:54.437Z,99.90
2019-04-18T03:06:25.369Z,99.90
2019-04-18T03:09:00.075Z,99.90
2019-04-18T03:11:31.059Z,99.90
2019-04-18T03:14:08.022Z,99.90
2019-04-18T03:16:36.234Z,99.90
2019-04-18T03:19:10.146Z,99.90
2019-04-18T03:21:39.863Z,99.90
2019-04-18T03:24:15.956Z,99.90
2019-04-18T03:26:44.298Z,99.90
2019-04-18T03:29:19.976Z,99.90
2019-04-18T03:31:58.273Z,99.90
2019-04-18T03:34:21.805Z,99.90
2019-04-18T03:37:05.144Z,99.90
2019-04-18T03:39:35.428Z,99.90
2019-04-18T03:42:06.466Z,99.90
2019-04-18T03:44:44.927Z,99.90
2019-04-18T03:47:30.578Z,99.90
2019-04-18T03:50:00.743Z,99.90
2019-04-18T03:52:31.726Z,99.90
2019-04-18T03:55:02.946Z,99.90
2019-04-18T03:57:34.450Z,99.90
2019-04-18T04:00:08.433Z,99.90
2019-04-18T04:02:39.480Z,99.90
2019-04-18T04:05:10.955Z,99.90
2019-04-18T04:07:41.926Z,99.90
2019-04-18T04:10:15.246Z,99.90
2019-04-18T04:12:46.979Z,99.90
2019-04-18T04:15:19.021Z,99.90
2019-04-18T04:18:09.924Z,99.90
2019-04-18T04:20:41.150Z,99.90
2019-04-18T04:23:12.101Z,99.90
2019-04-18T04:25:43.072Z,99.90
2019-04-18T04:28:14.042Z,99.90
2019-04-18T04:30:46.631Z,99.90
2019-04-18T04:33:17.662Z,99.90
2019-04-18T04:35:51.172Z,99.90
2019-04-18T04:38:21.277Z,99.90
2019-04-18T04:40:52.219Z,99.90
2019-04-18T04:43:23.188Z,99.90
2019-04-18T04:45:54.148Z,99.90
2019-04-18T04:48:28.798Z,99.90
2019-04-18T04:51:17.342Z,99.90
2019-04-18T04:53:52.604Z,99.90
2019-04-18T04:56:25.122Z,99.90
2019-04-18T04:58:58.400Z,99.90
2019-04-18T05:01:33.723Z,99.90
2019-04-18T05:04:04.695Z,99.90
2019-04-18T05:06:37.079Z,99.90
2019-04-18T05:09:08.737Z,99.90
2019-04-18T05:11:39.663Z,99.90
2019-04-18T05:14:10.805Z,99.90
2019-04-18T05:16:53.850Z,99.90
2019-04-18T05:19:27.325Z,99.90
2019-04-18T05:21:58.271Z,99.90
2019-04-18T05:24:29.235Z,99.90
2019-04-18T05:27:00.218Z,99.90
2019-04-18T05:29:32.797Z,99.90
2019-04-18T05:32:07.415Z,99.90
2019-04-18T05:34:36.480Z,99.90
2019-04-18T05:37:12.538Z,99.90
2019-04-18T05:39:40.074Z,99.90
2019-04-18T05:42:11.026Z,99.90
2019-04-18T05:44:41.993Z,99.90
2019-04-18T05:47:17.454Z,99.90
2019-04-18T05:49:49.994Z,99.90
2019-04-18T05:52:26.841Z,99.90
2019-04-18T05:54:59.705Z,99.90
2019-04-18T05:57:31.147Z,99.90
2019-04-18T06:00:09.118Z,99.90
2019-04-18T06:02:49.871Z,99.90
2019-04-18T06:05:27.653Z,99.90
2019-04-18T06:08:09.753Z,99.90
2019-04-18T06:10:40.338Z,99.90
2019-04-18T06:13:11.392Z,99.90
2019-04-18T06:15:44.038Z,99.90
2019-04-18T06:18:15.262Z,99.90
2019-04-18T06:20:46.241Z,99.90
2019-04-18T06:23:17.177Z,99.90
2019-04-18T06:25:51.214Z,99.90
2019-04-18T06:28:23.941Z,99.90
2019-04-18T06:31:14.245Z,99.90
2019-04-18T06:33:49.578Z,99.90
2019-04-18T06:36:23.364Z,99.90
2019-04-18T06:38:53.225Z,99.90
2019-04-18T06:41:24.188Z,99.90
2019-04-18T06:43:57.288Z,99.90
2019-04-18T06:46:27.718Z,99.90
2019-04-18T06:48:58.656Z,99.90
2019-04-18T06:51:30.973Z,99.90
2019-04-18T06:54:03.081Z,99.90
2019-04-18T06:56:34.214Z,99.90
2019-04-18T06:59:05.246Z,99.90
2019-04-18T07:01:36.187Z,99.90
2019-04-18T07:04:07.507Z,99.90
2019-04-18T07:06:40.963Z,99.90
2019-04-18T07:09:18.617Z,99.90
2019-04-18T07:11:51.129Z,99.90
2019-04-18T07:14:22.165Z,99.90
2019-04-18T07:16:53.096Z,99.90
2019-04-18T07:19:36.778Z,99.90
2019-04-18T07:22:08.375Z,99.90
2019-04-18T07:24:39.360Z,99.90
2019-04-18T07:27:10.296Z,99.90
2019-04-18T07:29:41.304Z,99.90
2019-04-18T07:32:12.258Z,99.90
2019-04-18T07:34:43.233Z,99.90
2019-04-18T07:37:16.747Z,99.90
2019-04-18T07:39:46.863Z,99.90
2019-04-18T07:42:17.811Z,99.90
2019-04-18T07:44:49.692Z,99.90
2019-04-18T07:47:39.412Z,99.90
2019-04-18T07:50:11.923Z,99.90
2019-04-18T07:52:43.508Z,99.90
2019-04-18T07:55:18.294Z,99.90
2019-04-18T07:57:52.040Z,99.90
2019-04-18T08:00:23.428Z,99.90
2019-04-18T08:02:54.512Z,99.90
2019-04-18T08:05:25.538Z,99.90
2019-04-18T08:07:56.489Z,99.90
2019-04-18T08:10:27.470Z,99.90
2019-04-18T08:12:58.449Z,99.90
2019-04-18T08:15:29.400Z,99.90
2019-04-18T08:18:00.377Z,99.90
2019-04-18T08:20:31.930Z,99.90
2019-04-18T08:23:17.887Z,99.90
2019-04-18T08:25:35.562Z,99.90
2019-04-18T08:28:11.992Z,99.90
2019-04-18T08:30:40.075Z,99.90
2019-04-18T08:33:11.058Z,99.90
2019-04-18T08:35:50.786Z,99.90
2019-04-18T08:38:24.755Z,99.90
2019-04-18T08:40:57.418Z,99.90
2019-04-18T08:43:45.080Z,99.90
2019-04-18T08:46:29.367Z,99.90
2019-04-18T08:49:03.337Z,99.90
2019-04-18T08:51:40.251Z,99.90
2019-04-18T08:54:16.238Z,99.90
2019-04-18T08:56:48.862Z,99.90
2019-04-18T08:59:39.345Z,99.90
2019-04-18T09:02:12.662Z,99.20
2019-04-18T09:04:45.640Z,97.60
2019-04-18T09:07:16.674Z,98.10
2019-04-18T09:09:48.672Z,97.20
2019-04-18T09:12:20.635Z,98.50
2019-04-18T09:14:51.898Z,98.10
2019-04-18T09:17:24.114Z,98.60
2019-04-18T09:20:09.440Z,98.80
2019-04-18T09:22:31.220Z,98.10
2019-04-18T09:25:01.630Z,96.90
2019-04-18T09:27:33.918Z,97.00
2019-04-18T09:30:08.454Z,96.60
2019-04-18T09:32:39.583Z,95.50
2019-04-18T09:35:15.109Z,96.20
2019-04-18T09:37:43.854Z,94.40
2019-04-18T09:40:16.515Z,95.60
2019-04-18T09:42:48.021Z,93.90
2019-04-18T09:45:29.770Z,93.40
2019-04-18T09:47:53.287Z,92.60
2019-04-18T09:50:25.224Z,94.40
2019-04-18T09:52:56.294Z,94.00
2019-04-18T09:55:27.279Z,92.90
2019-04-18T09:57:58.231Z,93.00
2019-04-18T10:00:29.909Z,91.30
2019-04-18T10:03:01.362Z,79.50
2019-04-18T10:05:33.420Z,67.40
2019-04-18T10:08:04.664Z,55.90
2019-04-18T10:10:35.639Z,48.30
2019-04-18T10:13:07.010Z,44.90
2019-04-18T10:15:38.457Z,40.60
2019-04-18T10:18:09.400Z,39.80
2019-04-18T10:20:43.049Z,38.30
2019-04-18T10:23:15.256Z,37.20
2019-04-18T10:25:50.817Z,35.00
2019-04-18T10:28:22.829Z,34.30
2019-04-18T10:31:02.706Z,32.20
2019-04-18T10:33:33.656Z,34.40
2019-04-18T10:36:05.929Z,34.10
2019-04-18T10:38:36.864Z,33.20
2019-04-18T10:41:07.839Z,33.20
2019-04-18T10:43:38.784Z,33.50
2019-04-18T10:46:14.659Z,33.40
2019-04-18T10:48:42.446Z,33.40
2019-04-18T10:51:13.415Z,32.70
2019-04-18T10:53:44.399Z,32.20
2019-04-18T10:56:15.351Z,33.70
2019-04-18T10:58:46.415Z,34.00
2019-04-18T11:01:17.623Z,30.80
2019-04-18T11:03:48.624Z,31.40
2019-04-18T11:06:22.557Z,31.00
2019-04-18T11:08:52.238Z,30.10
2019-04-18T11:11:23.175Z,30.50
2019-04-18T11:13:54.148Z,30.60
2019-04-18T11:16:25.088Z,29.60
2019-04-18T11:18:56.053Z,29.50
2019-04-18T11:21:27.195Z,29.10
2019-04-18T11:23:58.180Z,28.90
2019-04-18T11:26:29.115Z,28.50
2019-04-18T11:29:00.093Z,28.50
2019-04-18T11:31:31.034Z,30.20
2019-04-18T11:34:03.157Z,29.90
2019-04-18T11:36:34.215Z,30.10
2019-04-18T11:39:07.559Z,29.80
2019-04-18T11:41:38.902Z,28.70
2019-04-18T11:44:10.142Z,29.90
2019-04-18T11:46:41.103Z,28.50
2019-04-18T11:49:12.073Z,28.10
2019-04-18T11:51:43.046Z,28.80
2019-04-18T11:54:14.023Z,28.60
2019-04-18T11:56:44.964Z,28.30
2019-04-18T11:59:17.496Z,29.00
2019-04-18T12:01:50.035Z,29.00
2019-04-18T12:04:38.760Z,28.70
2019-04-18T12:07:11.756Z,27.70
2019-04-18T12:09:42.713Z,28.60
2019-04-18T12:12:13.732Z,29.40
2019-04-18T12:14:44.698Z,28.40
2019-04-18T12:17:15.639Z,28.50
2019-04-18T12:19:46.613Z,27.10
2019-04-18T12:22:17.575Z,27.90
2019-04-18T12:24:48.608Z,26.90
2019-04-18T12:27:19.618Z,26.40
2019-04-18T12:29:50.587Z,26.70
2019-04-18T12:32:21.555Z,26.80
2019-04-18T12:35:01.719Z,26.70
2019-04-18T12:37:34.178Z,26.30
2019-04-18T12:40:08.130Z,26.90
2019-04-18T12:42:39.241Z,27.40
2019-04-18T12:45:12.545Z,27.20
2019-04-18T12:47:43.097Z,27.00
2019-04-18T12:50:14.462Z,26.60
2019-04-18T12:52:45.477Z,27.00
2019-04-18T12:55:16.631Z,26.20
2019-04-18T12:57:47.719Z,27.80
2019-04-18T13:00:19.320Z,27.20
2019-04-18T13:02:50.423Z,27.70
2019-04-18T13:05:21.561Z,27.40
2019-04-18T13:08:00.529Z,27.50
2019-04-18T13:10:39.001Z,28.10
2019-04-18T13:13:16.049Z,28.20
2019-04-18T13:15:48.847Z,27.50
2019-04-18T13:18:19.970Z,27.30
2019-04-18T13:20:51.011Z,29.10
2019-04-18T13:23:22.095Z,29.40
2019-04-18T13:25:53.079Z,31.10
2019-04-18T13:28:24.103Z,32.10
2019-04-18T13:30:55.154Z,32.70
2019-04-18T13:33:26.247Z,31.50
2019-04-18T13:35:57.650Z,30.00
2019-04-18T13:38:28.823Z,29.40
2019-04-18T13:40:59.878Z,28.70
2019-04-18T13:43:30.885Z,29.10
2019-04-18T13:46:04.968Z,29.40
2019-04-18T13:48:34.582Z,30.20
2019-04-18T13:51:05.882Z,31.20
2019-04-18T13:53:36.923Z,31.90
2019-04-18T13:56:07.903Z,31.80
2019-04-18T13:58:38.990Z,32.10
2019-04-18T14:01:10.040Z,31.70
2019-04-18T14:03:41.057Z,31.20
2019-04-18T14:06:12.249Z,29.90
2019-04-18T14:08:43.331Z,29.00
2019-04-18T14:11:15.536Z,28.90
2019-04-18T14:13:46.770Z,28.50
2019-04-18T14:16:17.816Z,28.90
2019-04-18T14:18:48.903Z,29.20
2019-04-18T14:21:19.967Z,27.90
2019-04-18T14:23:51.377Z,27.90
2019-04-18T14:26:22.436Z,27.20
2019-04-18T14:28:53.540Z,27.80
2019-04-18T14:31:24.595Z,27.20
2019-04-18T14:33:56.614Z,26.50
2019-04-18T14:36:27.605Z,27.40
2019-04-18T14:38:58.614Z,28.20
2019-04-18T14:41:29.665Z,28.00
2019-04-18T14:44:00.706Z,27.50
2019-04-18T14:46:31.761Z,27.10
2019-04-18T14:49:03.826Z,26.60
2019-04-18T14:51:34.781Z,26.30
2019-04-18T14:54:05.789Z,26.50
2019-04-18T14:56:37.776Z,26.90
2019-04-18T14:59:08.865Z,26.60
2019-04-18T15:01:39.974Z,27.40
2019-04-18T15:04:10.998Z,27.50
2019-04-18T15:06:42.089Z,28.20
2019-04-18T15:09:20.852Z,28.30
2019-04-18T15:11:52.363Z,29.60
2019-04-18T15:14:23.926Z,30.00
2019-04-18T15:16:54.981Z,29.80
2019-04-18T15:19:26.936Z,29.40
2019-04-18T15:21:58.009Z,28.60
2019-04-18T15:24:29.200Z,29.00
2019-04-18T15:27:00.269Z,28.90
2019-04-18T15:29:31.335Z,28.20
2019-04-18T15:32:02.815Z,27.90
2019-04-18T15:34:33.878Z,28.00
2019-04-18T15:37:05.101Z,28.90
2019-04-18T15:39:36.131Z,29.20
2019-04-18T15:42:08.389Z,29.80
2019-04-18T15:44:39.473Z,29.70
2019-04-18T15:47:15.135Z,29.60
2019-04-18T15:49:47.331Z,29.40
2019-04-18T15:52:18.393Z,28.60
2019-04-18T15:54:49.475Z,28.80
2019-04-18T15:57:24.791Z,28.80
2019-04-18T15:59:55.800Z,28.20
2019-04-18T16:02:26.774Z,28.70
2019-04-18T16:04:57.947Z,29.30
2019-04-18T16:07:32.154Z,29.30
2019-04-18T16:10:01.956Z,29.70
2019-04-18T16:12:33.145Z,30.00
2019-04-18T16:15:17.129Z,30.00
2019-04-18T16:17:48.641Z,29.90
2019-04-18T16:20:20.526Z,30.00
2019-04-18T16:22:51.613Z,30.00
2019-04-18T16:25:23.121Z,30.50
2019-04-18T16:27:54.340Z,30.40
2019-04-18T16:30:28.406Z,31.10
2019-04-18T16:32:59.590Z,30.80
2019-04-18T16:35:30.901Z,30.60
2019-04-18T16:38:02.058Z,31.30
2019-04-18T16:40:33.274Z,31.20
2019-04-18T16:43:04.501Z,31.50
2019-04-18T16:45:38.782Z,32.10
2019-04-18T16:48:08.844Z,32.70
2019-04-18T16:50:40.465Z,33.20
2019-04-18T16:53:12.478Z,33.60
2019-04-18T16:55:43.524Z,33.70
2019-04-18T16:58:14.679Z,35.10
2019-04-18T17:00:46.965Z,36.20
2019-04-18T17:03:18.592Z,37.40
2019-04-18T17:05:49.640Z,38.70
2019-04-18T17:08:20.697Z,39.70
2019-04-18T17:10:51.925Z,41.10
2019-04-18T17:13:23.000Z,42.00
2019-04-18T17:15:54.010Z,43.20
2019-04-18T17:18:25.055Z,44.10
2019-04-18T17:20:56.142Z,45.10
2019-04-18T17:23:28.025Z,46.50
2019-04-18T17:25:59.266Z,47.40
2019-04-18T17:28:30.522Z,47.60
2019-04-18T17:31:03.101Z,48.30
2019-04-18T17:33:37.153Z,48.70
2019-04-18T17:36:23.542Z,49.30
2019-04-18T17:38:55.084Z,49.80
2019-04-18T17:41:20.262Z,50.00
2019-04-18T17:43:53.294Z,50.60
2019-04-18T17:46:23.410Z,51.20
2019-04-18T17:48:52.285Z,51.80
2019-04-18T17:51:37.886Z,52.40
2019-04-18T17:54:17.202Z,52.90
2019-04-18T17:56:36.492Z,53.60
2019-04-18T17:59:02.685Z,54.10
2019-04-18T18:01:34.928Z,54.60
2019-04-18T18:04:08.296Z,54.90
2019-04-18T18:06:48.558Z,55.10
2019-04-18T18:09:16.860Z,55.30
2019-04-18T18:11:52.976Z,55.80
2019-04-18T18:14:23.561Z,56.40
2019-04-18T18:16:57.594Z,56.60
2019-04-18T18:19:27.889Z,57.00
2019-04-18T18:22:03.501Z,57.00
2019-04-18T18:24:30.218Z,57.70
2019-04-18T18:27:03.601Z,58.30
2019-04-18T18:29:35.215Z,58.60
2019-04-18T18:32:06.961Z,59.90
2019-04-18T18:34:50.705Z,59.50
2019-04-18T18:37:35.811Z,59.90
2019-04-18T18:39:58.182Z,59.90
2019-04-18T18:42:33.507Z,60.10
2019-04-18T18:45:03.424Z,60.50
2019-04-18T18:47:37.793Z,61.10
2019-04-18T18:50:07.995Z,61.70
2019-04-18T18:52:39.453Z,62.00
2019-04-18T18:55:11.544Z,62.60
2019-04-18T18:57:47.373Z,62.90
2019-04-18T19:00:16.988Z,63.10
2019-04-18T19:02:52.886Z,63.70
2019-04-18T19:05:39.839Z,64.30
2019-04-18T19:08:06.729Z,64.80
2019-04-18T19:13:19.828Z,65.80
2019-04-18T19:15:54.288Z,66.20
2019-04-18T19:18:04.969Z,66.70
2019-04-18T19:20:36.000Z,66.50
2019-04-18T19:23:10.765Z,67.70
2019-04-18T19:25:42.843Z,67.70
2019-04-18T19:28:20.985Z,68.90
2019-04-18T19:30:47.653Z,69.60
2019-04-18T19:33:22.062Z,70.60
2019-04-18T19:36:12.081Z,71.90
2019-04-18T19:38:49.863Z,72.40
2019-04-18T19:41:15.656Z,72.80
2019-04-18T19:43:32.913Z,72.20
2019-04-18T19:46:02.382Z,72.80
2019-04-18T19:48:35.718Z,73.00
2019-04-18T19:51:07.776Z,73.40
2019-04-18T19:53:46.017Z,74.10
2019-04-18T19:56:15.186Z,74.60
2019-04-18T19:58:44.470Z,75.50
2019-04-18T20:01:15.550Z,76.70
2019-04-18T20:03:46.699Z,76.70
2019-04-18T20:06:32.472Z,77.70
2019-04-18T20:09:06.348Z,77.50
2019-04-18T20:11:39.662Z,77.80
2019-04-18T20:14:03.939Z,78.50
2019-04-18T20:16:29.624Z,78.90
2019-04-18T20:19:08.673Z,80.00
2019-04-18T20:21:33.457Z,80.60
2019-04-18T20:24:06.722Z,82.10
2019-04-18T20:26:41.113Z,82.70
2019-04-18T20:29:10.639Z,83.10
2019-04-18T20:31:47.715Z,84.00
2019-04-18T20:34:16.231Z,84.80
2019-04-18T20:37:01.872Z,84.60
2019-04-18T20:40:01.220Z,85.40
2019-04-18T20:42:14.373Z,86.20
2019-04-18T20:44:37.595Z,87.30
2019-04-18T20:47:11.432Z,88.40
2019-04-18T20:49:47.199Z,89.60
2019-04-18T20:52:26.118Z,89.90
2019-04-18T20:54:57.600Z,90.70
2019-04-18T20:57:11.407Z,90.90
2019-04-18T20:59:43.107Z,91.40
2019-04-18T21:02:15.257Z,91.40
2019-04-18T21:04:50.346Z,92.30
2019-04-18T21:07:32.124Z,92.80
2019-04-18T21:10:01.364Z,93.30
2019-04-18T21:12:25.531Z,93.40
2019-04-18T21:14:56.600Z,94.50
2019-04-18T21:17:28.750Z,95.00
2019-04-18T21:20:00.881Z,95.70
2019-04-18T21:22:32.496Z,96.30
2019-04-18T21:25:03.918Z,97.70
2019-04-18T21:27:40.445Z,98.80
2019-04-18T21:30:10.136Z,99.20
2019-04-18T21:32:44.160Z,99.30
2019-04-18T21:35:15.139Z,99.80
2019-04-18T21:37:55.683Z,99.90
2019-04-18T21:40:21.771Z,99.90
2019-04-18T21:42:52.516Z,99.90
2019-04-18T21:45:28.100Z,99.90
2019-04-18T21:47:57.118Z,99.90
2019-04-18T21:50:29.157Z,99.90
2019-04-18T21:53:00.885Z,99.90
2019-04-18T21:55:32.725Z,99.90
2019-04-18T21:58:09.935Z,99.90
2019-04-18T22:00:49.551Z,99.90
2019-04-18T22:03:16.144Z,99.90
2019-04-18T22:05:53.834Z,99.90
2019-04-18T22:08:24.047Z,99.90
2019-04-18T22:10:52.636Z,99.90
2019-04-18T22:13:24.523Z,99.90
2019-04-18T22:15:55.512Z,99.90
2019-04-18T22:18:27.644Z,99.90
2019-04-18T22:21:03.923Z,99.90
2019-04-18T22:23:35.050Z,99.90
2019-04-18T22:26:04.446Z,99.90
2019-04-18T22:28:39.901Z,99.90
2019-04-18T22:31:08.749Z,99.90
2019-04-18T22:33:45.056Z,99.90
2019-04-18T22:36:16.986Z,99.90
2019-04-18T22:38:47.724Z,99.90
2019-04-18T22:41:17.778Z,99.90
2019-04-18T22:43:49.674Z,99.90
2019-04-18T22:46:23.696Z,99.90
2019-04-18T22:48:53.263Z,99.90
2019-04-18T22:51:24.230Z,99.90
2019-04-18T22:53:57.124Z,99.90
2019-04-18T22:56:27.822Z,99.90
2019-04-18T22:59:04.673Z,99.90
2019-04-18T23:01:32.582Z,99.90
2019-04-18T23:04:05.652Z,99.90
2019-04-18T23:06:37.881Z,99.90
2019-04-18T23:09:12.612Z,99.90
2019-04-18T23:11:49.962Z,99.90
2019-04-18T23:14:16.684Z,99.90
2019-04-18T23:16:52.701Z,99.90
2019-04-18T23:19:20.496Z,99.90
2019-04-18T23:21:56.218Z,99.90
2019-04-18T23:24:25.609Z,99.90
2019-04-18T23:26:59.234Z,99.90
2019-04-18T23:29:31.923Z,99.90
2019-04-18T23:32:02.010Z,99.90
2019-04-18T23:34:37.381Z,99.90
2019-04-18T23:37:06.760Z,99.90
2019-04-18T23:39:44.832Z,99.90
2019-04-18T23:42:14.508Z,99.90
2019-04-18T23:44:47.401Z,99.90
2019-04-18T23:47:18.645Z,99.90
2019-04-18T23:49:50.492Z,99.90
2019-04-18T23:52:24.791Z,99.90
2019-04-18T23:54:54.198Z,99.90
2019-04-18T23:57:27.860Z,99.90
2019-04-18T23:59:58.857Z,99.90
